Flight Track Log - Related Links

Times and Time Zones

All times are in EDT time to prevent confusion due to time zone crossing. See the UAL3732 flight status page for this flight to view local times or setup timezone preferences in your user account.

Time Position Orientation Groundspeed Altitude Reporting Facility
EDT Latitude Longitude Course Direction KTS MPH feet Rate Location/Type
Sun 05:37:02 PM 44.4856 -73.2606 255° West 204 235 4,900  Level Boston Center
Sun 05:38:00 PM 44.4033 -73.5294 253° West  Level FlightAware Approximate
Sun 05:38:02 PM 44.4722 -73.3506 258° West 226 260 7,100  Level Boston Center
Sun 05:39:00 PM 44.3765 -73.6541 253° West  Level FlightAware Approximate
Sun 05:39:03 PM 44.4528 -73.4522 255° West 258 297 9,700  Level Boston Center
Sun 05:40:00 PM 44.3552 -73.7806 259° West  Level FlightAware Approximate
Sun 05:40:03 PM 44.4350 -73.5594 257° West 277 319 11,600  Level Boston Center
Sun 05:41:00 PM 44.3370 -73.9081 259° West  Level FlightAware Approximate
Sun 05:41:01 PM 44.4131 -73.6811 256° West 311 358 13,500  Level Boston Center
Sun 05:42:00 PM 44.3143 -74.0342 255° West  Level FlightAware Approximate
Sun 05:42:03 PM 44.3908 -73.7967 255° West 331 381 16,000  Level Boston Center
Sun 05:43:03 PM 44.3686 -73.9183 256° West 337 388 18,000 2,542 Climbing Boston Center
Sun 05:44:01 PM 44.3461 -74.0367 255° West 331 381 21,000 2,186 Climbing Boston Center
Sun 05:45:01 PM 44.3214 -74.1636 255° West 319 367 22,300 1,350 Climbing Boston Center
Sun 05:46:01 PM 44.2986 -74.2878 256° West 319 367 23,700 1,388 Climbing Boston Center
Sun 05:47:02 PM 44.2756 -74.4147 256° West 325 374 25,100 1,328 Climbing Boston Center
Sun 05:48:03 PM 44.2503 -74.5442 255° West 338 389 26,400 1,322 Climbing Boston Center
Sun 05:49:00 PM 44.2272 -74.6739 256° West 346 398 27,700 1,100 Climbing Boston Center
Sun 05:50:03 PM 44.2036 -74.8092 256° West 352 405 28,600 885 Climbing Boston Center
Sun 05:51:02 PM 44.1758 -74.9442 254° West 357 411 29,500 958 Climbing Boston Center
Sun 05:52:02 PM 44.1497 -75.0819 255° West 357 411 30,500 942 Climbing Boston Center
Sun 05:53:03 PM 44.1258 -75.2081 255° West 362 417 31,400 793 Climbing Boston Center
Sun 05:54:03 PM 44.0975 -75.3456 254° West 372 428 32,100 818 Climbing Boston Center
Sun 05:55:15 PM 44.0708 -75.4858 255° West 372 428 33,200 1,477 Climbing Boston Center
Sun 05:56:13 PM 44.0417 -75.6433 256° West 372 428 35,300 1,627 Climbing Boston Center
Sun 05:57:13 PM 44.0172 -75.7661 255° West 357 411 36,400 645 Climbing Boston Center
Sun 05:58:14 PM 43.9928 -75.8889 255° West 343 395 36,600 298 Climbing Boston Center
Sun 05:59:14 PM 43.9661 -76.0114 253° West 337 388 37,000 300 Climbing Boston Center
Sun 06:00:14 PM 43.9497 -76.1344 260° West 331 381 37,200 347 Climbing Boston Center
Sun 06:01:15 PM 43.9372 -76.2608 262° West 337 388 37,700 397 Climbing Boston Center
Sun 06:02:15 PM 43.9289 -76.3872 265° West 337 388 38,000 154 Climbing Boston Center
Sun 06:03:12 PM 43.9158 -76.5161 262° West 337 388 38,000  Level Boston Center
Sun 06:04:13 PM 43.9050 -76.6478 264° West 337 388 38,000  Level Boston Center
Sun 06:05:24 PM 43.8833 -76.7833 258° West 330 380 38,000  Level Toronto Center
Sun 06:06:24 PM 43.8667 -76.9000 259° West 330 380 38,000  Level Toronto Center
Sun 06:07:24 PM 43.8500 -77.0167 259° West 330 380 38,000  Level Toronto Center
Sun 06:08:24 PM 43.8333 -77.1667 261° West 330 380 38,000  Level Toronto Center
Sun 06:09:24 PM 43.8167 -77.2833 259° West 330 380 38,000  Level Toronto Center
Sun 06:10:24 PM 43.8167 -77.4167 270° West 330 380 38,000  Level Toronto Center
Sun 06:11:24 PM 43.8000 -77.5333 259° West 330 380 38,000  Level Toronto Center
Sun 06:12:24 PM 43.7833 -77.6667 260° West 330 380 38,000  Level Toronto Center
Sun 06:13:24 PM 43.7833 -77.7833 270° West 320 368 38,000  Level Toronto Center
Sun 06:14:24 PM 43.7667 -77.9000 259° West 320 368 38,000  Level Toronto Center
Sun 06:15:24 PM 43.7500 -78.0167 259° West 310 357 38,000  Level Toronto Center
Sun 06:16:24 PM 43.7333 -78.1333 259° West 310 357 38,000  Level Toronto Center
Sun 06:17:24 PM 43.7167 -78.2500 259° West 300 345 38,000  Level Toronto Center
Sun 06:18:24 PM 43.7000 -78.3667 259° West 300 345 38,000  Level Toronto Center
Sun 06:19:24 PM 43.7000 -78.4833 270° West 300 345 38,000  Level Toronto Center
Sun 06:20:24 PM 43.7000 -78.6000 270° West 300 345 38,000  Level Toronto Center
Sun 06:21:24 PM 43.6833 -78.7167 259° West 300 345 38,000  Level Toronto Center
Sun 06:22:24 PM 43.6667 -78.8333 259° West 300 345 38,000  Level Toronto Center
Sun 06:23:24 PM 43.6667 -78.9333 270° West 300 345 38,000  Level Toronto Center
Sun 06:24:24 PM 43.6500 -79.0333 257° West 300 345 38,000  Level Toronto Center
Sun 06:25:24 PM 43.6333 -79.1667 260° West 300 345 38,000  Level Toronto Center
Sun 06:26:24 PM 43.6333 -79.2667 270° West 300 345 38,000  Level Toronto Center
Sun 06:27:24 PM 43.6167 -79.3833 259° West 300 345 38,000  Level Toronto Center
Sun 06:28:24 PM 43.6000 -79.5000 259° West 290 334 38,000  Level Toronto Center
Sun 06:29:24 PM 43.6000 -79.6167 270° West 300 345 38,000  Level Toronto Center
Sun 06:30:24 PM 43.5833 -79.7333 259° West 290 334 38,000  Level Toronto Center
Sun 06:31:24 PM 43.5667 -79.8333 257° West 290 334 38,000  Level Toronto Center
Sun 06:32:24 PM 43.5667 -79.9333 270° West 290 334 38,000  Level Toronto Center
Sun 06:33:24 PM 43.5500 -80.0500 259° West 290 334 38,000  Level Toronto Center
Sun 06:34:24 PM 43.5333 -80.1667 259° West 290 334 38,000  Level Toronto Center
Sun 06:35:24 PM 43.5333 -80.2833 270° West 300 345 38,000  Level Toronto Center
Sun 06:36:24 PM 43.5167 -80.3833 257° West 300 345 38,000  Level Toronto Center
Sun 06:37:24 PM 43.5000 -80.5000 259° West 300 345 38,000  Level Toronto Center
Sun 06:38:24 PM 43.5000 -80.6167 270° West 300 345 38,000  Level Toronto Center
Sun 06:39:24 PM 43.4833 -80.7333 259° West 300 345 38,000  Level Toronto Center
Sun 06:40:24 PM 43.4500 -80.8500 249° West 300 345 38,000  Level Toronto Center
Sun 06:41:24 PM 43.4500 -80.9667 270° West 310 357 38,000  Level Toronto Center
Sun 06:42:24 PM 43.4167 -81.0833 249° West 310 357 38,000  Level Toronto Center
Sun 06:43:24 PM 43.4000 -81.2000 259° West 320 368 38,000  Level Toronto Center
Sun 06:44:24 PM 43.3833 -81.3000 257° West 330 380 38,000  Level Toronto Center
Sun 06:45:24 PM 43.3667 -81.4500 261° West 330 380 38,000  Level Toronto Center
Sun 06:46:24 PM 43.3500 -81.5667 259° West 330 380 38,000  Level Toronto Center
Sun 06:47:24 PM 43.3333 -81.7000 260° West 340 391 38,000  Level Toronto Center
Sun 06:48:24 PM 43.3167 -81.8167 259° West 340 391 38,000  Level Toronto Center
Sun 06:49:24 PM 43.2667 -81.9500 243° Southwest 340 391 38,000  Level Toronto Center
Sun 06:50:24 PM 43.2500 -82.0667 259° West 340 391 38,000  Level Toronto Center
Sun 06:51:24 PM 43.2333 -82.2000 260° West 340 391 38,000  Level Toronto Center
Sun 06:52:24 PM 43.2167 -82.3167 259° West 340 391 38,000 -300 Level Toronto Center
Sun 06:53:24 PM 43.2000 -82.4500 260° West 340 391 37,400 -800 Descending Toronto Center
Sun 06:54:24 PM 43.1833 -82.5833 260° West 350 403 36,400 -1,000 Descending Toronto Center
Sun 06:55:24 PM 43.1333 -82.7167 243° Southwest 360 414 35,400 -867 Descending Toronto Center
Sun 06:55:47 PM 43.1503 -82.7600 298° West 356 410 35,200 -867 Descending Cleveland Center
Sun 06:56:47 PM 43.1225 -82.9014 255° West 378 435 34,200 -1,000 Descending Cleveland Center
Sun 06:57:47 PM 43.0944 -83.0453 255° West 390 449 33,200 -1,100 Descending Cleveland Center
Sun 06:58:47 PM 43.0681 -83.2064 257° West 395 455 32,000 -600 Descending Cleveland Center
Sun 06:59:47 PM 43.0397 -83.3472 255° West 395 455 32,000  Level Cleveland Center
Sun 07:00:47 PM 43.0133 -83.4881 256° West 395 455 32,000  Level Cleveland Center
Sun 07:01:47 PM 42.9867 -83.6344 256° West 395 455 32,000  Level Cleveland Center
Sun 07:02:47 PM 42.9617 -83.7864 257° West 395 455 32,000  Level Cleveland Center
Sun 07:03:47 PM 42.9469 -83.9389 263° West 401 461 32,000  Level Cleveland Center
Sun 07:04:47 PM 42.9342 -84.0914 264° West 406 467 32,000  Level Cleveland Center
Sun 07:05:47 PM 42.9169 -84.2406 261° West 406 467 32,000  Level Cleveland Center
Sun 07:06:47 PM 42.9042 -84.3758 263° West 406 467 32,000  Level Cleveland Center
Sun 07:07:47 PM 42.8889 -84.5281 262° West 406 467 32,000  Level Cleveland Center
Sun 07:08:57 PM 42.8722 -84.7042 263° West 403 464 32,000  Level Chicago Center
Sun 07:09:59 PM 42.8567 -84.8553 262° West 404 465 32,000  Level Chicago Center
Sun 07:11:01 PM 42.8397 -85.0061 261° West 405 466 32,000  Level Chicago Center
Sun 07:12:03 PM 42.8239 -85.1567 262° West 403 464 32,000  Level Chicago Center
Sun 07:13:05 PM 42.8033 -85.3392 261° West 404 465 32,000 -1,306 Level Chicago Center
Sun 07:14:07 PM 42.7875 -85.4917 262° West 406 467 29,300 -2,732 Descending Chicago Center
Sun 07:15:08 PM 42.7608 -85.6397 256° West 402 463 26,400 -2,634 Descending Chicago Center
Sun 07:16:10 PM 42.7350 -85.7836 256° West 393 452 23,900 -2,352 Descending Chicago Center
Sun 07:17:13 PM 42.7108 -85.9192 256° West 374 430 21,500 -1,887 Descending Chicago Center
Sun 07:18:14 PM 42.6872 -86.0492 256° West 359 413 20,000 -732 Descending Chicago Center
Sun 07:19:16 PM 42.6628 -86.1769 255° West 350 403 20,000  Level Chicago Center
Sun 07:20:18 PM 42.6386 -86.3083 256° West 354 407 20,000  Level Chicago Center
Sun 07:21:20 PM 42.6069 -86.4711 255° West 369 425 20,000 -194 Level Chicago Center
Sun 07:22:22 PM 42.5817 -86.6078 256° West 372 428 19,600 -1,597 Descending Chicago Center
Sun 07:23:24 PM 42.5575 -86.7467 257° West 370 426 16,700 -2,661 Descending Chicago Center
Sun 07:24:26 PM 42.5236 -86.8642 249° West 349 402 14,100 -2,226 Descending Chicago Center
Sun 07:25:28 PM 42.4925 -86.9761 249° West 327 376 12,100 -1,902 Descending Chicago Center
Sun 07:26:29 PM 42.4658 -87.0719 249° West 283 326 10,200 -1,512 Descending Chicago Center
Sun 07:27:31 PM 42.4353 -87.1786 249° West 259 298 9,000 -581 Descending Chicago Center
Sun 07:28:33 PM 42.4125 -87.2653 250° West 248 285 9,000 -48 Level Chicago Center
Sun 07:29:35 PM 42.3917 -87.3519 252° West 245 282 8,900 -480 Descending Chicago Center
Sun 07:30:38 PM 42.3692 -87.4381 251° West 246 283 8,000 -823 Descending Chicago Center
Sun 07:31:39 PM 42.3317 -87.5233 239° Southwest 249 287 7,200 -488 Descending Chicago Center
Sun 07:32:41 PM 42.2769 -87.5856 220° Southwest 229 264 7,000 -242 Descending Chicago Center
Sun 07:33:43 PM 42.2364 -87.6308 220° Southwest 191 220 6,700 -532 Descending Chicago Center
Sun 07:34:45 PM 42.2042 -87.6717 223° Southwest 161 185 5,900 -732 Descending Chicago Center
Sun 07:35:46 PM 42.1714 -87.7067 218° Southwest 154 177 5,200 -780 Descending Chicago Center
Sun 07:36:48 PM 42.1347 -87.7425 216° Southwest 161 185 4,300 -1,077 Descending Chicago Center
Sun 07:37:04 PM 42.1167 -87.7667 225° Southwest 179 206 3,800 -1,105 Descending Chicago TRACON
Sun 07:38:04 PM 42.0833 -87.8000 217° Southwest 166 191 2,900 -900 Descending Chicago TRACON

Login

Don't have an account? Register now (free) for customized features, flight alerts, and more!